Anoka, Minnesota
Current Conditions -  °F | °C
As of 4:50 PM on Tuesday 21 Oct 2014 (Local Time) from KANE Reporting Station
Clear Clear  
Wind Chill: 59°   Ceiling: Unl
Heat Index: 59°   Visibility: 10mi
Dew Point: 39°   Wind: 10mph
Humidity: 48%   Direction: 140°SE
Pressure: 30.13"   Gusts: NA
Location:  45.2°N, 93.39°W
Report Text: KANE 212150Z 14009KT 10SM SKC 15/04 A3013
Loading
Personal Weather Stations






























Interactive Weather Map New forecast layout! Learn more

10-Day Weather Forecast

Advertisements
Track Severe Weather on mobile